Time;durP1;ratioP1;P1;durP2;ratioP2;P2;SDS_P1;SDS_P2;PMS_P1;PMS_P2;Temp;Humidity;BMP_temperature;BMP_pressure;BME280_temperature;BME280_humidity;BME280_pressure;Samples;Min_cycle;Max_cycle;Signal;HPM_P1;HPM_P2
2022/12/10 00:01:15;;;;;;;14.33;9.37;;;-0.90;99.90;-2.00;99677;;;;572185;247;24055;-72
2022/12/10 00:03:43;;;;;;;49.77;27.30;;;-0.90;99.90;-2.00;99684;;;;571798;247;24067;-73
2022/12/10 00:06:11;;;;;;;61.63;32.23;;;-0.90;99.90;-1.90;99684;;;;571698;247;24072;-78
2022/12/10 00:08:40;;;;;;;70.30;46.63;;;-0.80;99.90;-1.90;99681;;;;572773;247;24065;-74
2022/12/10 00:11:08;;;;;;;20.97;13.40;;;-0.80;99.90;-1.80;99686;;;;573463;246;24046;-82
2022/12/10 00:13:39;;;;;;;42.03;22.80;;;-0.70;99.90;-1.80;99678;;;;573954;246;24054;-77
2022/12/10 00:16:04;;;;;;;29.10;17.43;;;-0.70;99.90;-1.80;99677;;;;573328;247;24163;-77
2022/12/10 00:18:35;;;;;;;11.73;8.53;;;-0.70;99.90;-1.80;99678;;;;573756;247;24084;-78
2022/12/10 00:21:00;;;;;;;26.87;16.13;;;-0.70;99.90;-1.80;99679;;;;572921;247;24060;-77
2022/12/10 00:23:32;;;;;;;19.00;11.53;;;-0.80;99.90;-1.80;99677;;;;581525;247;24074;-77
2022/12/10 00:25:56;;;;;;;19.43;12.27;;;-0.70;99.90;-1.80;99678;;;;573256;247;24125;-75
2022/12/10 00:28:24;;;;;;;25.47;16.37;;;-0.70;99.90;-1.80;99683;;;;572414;247;24105;-76
2022/12/10 00:30:52;;;;;;;23.27;14.53;;;-0.70;99.90;-1.80;99680;;;;572906;247;24076;-72
2022/12/10 00:33:20;;;;;;;20.03;13.80;;;-0.70;99.90;-1.90;99680;;;;572708;247;24094;-74
2022/12/10 00:35:48;;;;;;;22.40;14.90;;;-0.70;99.90;-1.90;99677;;;;572788;247;24061;-78
2022/12/10 00:38:15;;;;;;;23.27;15.17;;;-0.80;99.90;-1.90;99687;;;;572965;247;24120;-73
2022/12/10 00:40:43;;;;;;;11.93;7.83;;;-0.80;99.90;-1.90;99684;;;;572964;247;24141;-78
2022/12/10 00:43:11;;;;;;;20.30;12.93;;;-0.80;99.90;-1.90;99691;;;;573103;247;24038;-77
2022/12/10 00:45:39;;;;;;;14.70;8.73;;;-0.80;99.90;-1.80;99687;;;;573024;247;24068;-84
2022/12/10 00:48:07;;;;;;;29.17;18.67;;;-0.80;99.90;-1.80;99689;;;;572668;247;24121;-81
2022/12/10 00:50:35;;;;;;;35.37;22.63;;;-0.70;99.90;-1.80;99687;;;;572708;247;24078;-72
2022/12/10 00:53:03;;;;;;;46.33;28.40;;;-0.70;99.90;-1.80;99693;;;;572252;247;24073;-78
2022/12/10 00:55:31;;;;;;;48.60;27.47;;;-0.70;99.90;-1.80;99696;;;;572570;247;24121;-75
2022/12/10 00:57:59;;;;;;;45.77;25.70;;;-0.70;99.90;-1.80;99693;;;;572676;247;24057;-78
2022/12/10 01:00:27;;;;;;;31.93;18.87;;;-0.70;99.90;-1.80;99707;;;;572899;247;24053;-81
2022/12/10 01:02:55;;;;;;;29.87;18.17;;;-0.70;99.90;-1.80;99697;;;;572550;247;24128;-79
2022/12/10 01:05:23;;;;;;;25.60;17.17;;;-0.70;99.90;-1.80;99701;;;;572645;247;24041;-82
2022/12/10 01:07:54;;;;;;;35.37;22.13;;;-0.70;99.90;-1.80;99687;;;;572564;247;24067;-77
2022/12/10 01:10:18;;;;;;;35.60;24.05;;;-0.70;99.90;-1.80;99699;;;;567290;247;35135;-82
2022/12/10 01:12:46;;;;;;;30.80;19.47;;;-0.70;99.90;-1.80;99695;;;;572471;243;24066;-82
2022/12/10 01:15:14;;;;;;;33.40;19.73;;;-0.70;99.90;-1.80;99684;;;;572049;247;24054;-83
2022/12/10 01:17:42;;;;;;;32.83;20.03;;;-0.70;99.90;-1.80;99690;;;;571790;247;24065;-79
2022/12/10 01:20:11;;;;;;;33.17;19.67;;;-0.70;99.90;-1.80;99680;;;;572390;247;24137;-77
2022/12/10 01:22:38;;;;;;;33.10;20.60;;;-0.70;99.90;-1.90;99684;;;;573256;246;24150;-78
2022/12/10 01:25:07;;;;;;;32.67;20.80;;;-0.80;99.90;-2.00;99685;;;;573793;246;24090;-78
2022/12/10 01:27:34;;;;;;;32.07;20.63;;;-0.80;99.90;-2.00;99688;;;;582151;247;24045;-79
2022/12/10 01:30:02;;;;;;;28.83;18.97;;;-0.90;99.90;-2.10;99684;;;;573386;247;24058;-74
2022/12/10 01:32:30;;;;;;;28.77;17.43;;;-1.00;99.90;-2.20;99688;;;;573164;247;24080;-73
2022/12/10 01:34:58;;;;;;;30.43;17.80;;;-1.00;99.90;-2.20;99675;;;;572707;247;24049;-71
2022/12/10 01:37:26;;;;;;;22.63;14.83;;;-1.10;99.90;-2.20;99676;;;;572311;247;24098;-73
2022/12/10 01:39:55;;;;;;;23.50;16.20;;;-1.10;99.90;-2.20;99669;;;;572250;247;24060;-72
2022/12/10 01:42:23;;;;;;;21.73;15.60;;;-1.20;99.90;-2.30;99669;;;;572159;247;24066;-73
2022/12/10 01:44:57;;;;;;;23.63;16.03;;;-1.20;99.90;-2.30;99674;;;;571995;247;24062;-73
2022/12/10 01:47:28;;;;;;;23.73;15.03;;;-1.20;99.90;-2.30;99676;;;;577829;247;24160;-72
2022/12/10 01:49:53;;;;;;;25.70;16.17;;;-1.20;99.90;-2.30;99670;;;;571969;247;24140;-72
2022/12/10 01:52:24;;;;;;;23.53;15.57;;;-1.20;99.90;-2.30;99676;;;;571919;247;25088;-72
2022/12/10 01:54:48;;;;;;;24.63;16.73;;;-1.20;99.90;-2.30;99665;;;;571933;247;24067;-70
2022/12/10 01:57:19;;;;;;;26.53;16.10;;;-1.20;99.90;-2.30;99666;;;;571898;247;24118;-72
2022/12/10 01:59:47;;;;;;;21.93;15.10;;;-1.20;99.90;-2.30;99666;;;;574445;247;24095;-77
2022/12/10 02:02:36;;;;;;;22.63;15.13;;;-1.10;99.90;-2.30;99656;;;;571988;247;24129;-74
2022/12/10 02:05:28;;;;;;;20.83;15.00;;;-1.20;99.90;-2.20;99664;;;;572526;247;24062;-76
2022/12/10 02:08:11;;;;;;;17.17;13.30;;;-1.10;99.90;-2.20;99658;;;;581200;247;24073;-79
2022/12/10 02:11:13;;;;;;;21.37;14.77;;;-1.10;99.90;-2.20;99661;;;;572193;247;24093;-72
2022/12/10 02:13:40;;;;;;;20.63;14.33;;;-1.10;99.90;-2.20;99664;;;;561875;251;24101;-73
2022/12/10 02:16:08;;;;;;;18.10;14.57;;;-1.10;99.90;-2.20;99665;;;;564166;251;24124;-75
2022/12/10 02:19:03;;;;;;;20.27;14.53;;;-1.10;99.90;-2.20;99661;;;;565235;250;24143;-78
2022/12/10 02:21:31;;;;;;;18.83;13.87;;;-1.10;99.90;-2.20;99662;;;;563603;250;24126;-79
2022/12/10 02:23:59;;;;;;;19.97;13.40;;;-1.10;99.90;-2.20;99662;;;;563685;251;25238;-75
2022/12/10 02:27:03;;;;;;;17.87;13.73;;;-1.10;99.90;-2.10;99660;;;;563715;251;24168;-74
2022/12/10 02:29:31;;;;;;;20.33;14.57;;;-1.00;99.90;-2.10;99666;;;;563845;251;24117;-78
2022/12/10 02:32:05;;;;;;;26.13;18.03;;;-1.00;99.90;-2.10;99667;;;;567478;251;24114;-77
2022/12/10 02:34:33;;;;;;;37.37;26.47;;;-1.00;99.90;-2.10;99672;;;;564623;250;24098;-72
2022/12/10 02:37:02;;;;;;;42.60;29.23;;;-0.90;99.90;-2.00;99673;;;;572681;246;24081;-73
2022/12/10 02:39:30;;;;;;;40.27;27.53;;;-1.00;99.90;-2.00;99686;;;;572932;247;24054;-73
2022/12/10 02:41:58;;;;;;;34.33;23.10;;;-0.90;99.90;-2.00;99678;;;;572967;247;24072;-72
2022/12/10 02:44:29;;;;;;;33.93;24.20;;;-0.90;99.90;-2.00;99676;;;;571931;247;24111;-76
2022/12/10 02:46:54;;;;;;;28.17;20.17;;;-0.90;99.90;-1.90;99670;;;;571798;247;24076;-73
2022/12/10 02:49:21;;;;;;;26.67;17.97;;;-0.90;99.90;-1.90;99669;;;;571833;247;24077;-72
2022/12/10 02:51:49;;;;;;;21.77;15.93;;;-0.80;99.90;-1.90;99679;;;;570952;247;24104;-72
2022/12/10 02:54:39;;;;;;;23.17;16.10;;;-0.80;99.90;-1.90;99677;;;;572489;247;24083;-71
2022/12/10 02:57:47;;;;;;;19.00;13.50;;;-0.80;99.90;-1.80;99680;;;;577990;247;24105;-72
2022/12/10 03:00:21;;;;;;;18.93;14.37;;;-0.80;99.90;-1.80;99684;;;;572746;247;24073;-73
2022/12/10 03:03:14;;;;;;;16.03;12.27;;;-0.70;99.90;-1.80;99683;;;;579817;247;24130;-71
2022/12/10 03:06:11;;;;;;;13.67;11.23;;;-0.70;99.90;-1.80;99681;;;;578576;247;24041;-73
2022/12/10 03:08:49;;;;;;;14.50;11.87;;;-0.70;99.90;-1.80;99681;;;;571968;247;24124;-73
2022/12/10 03:11:20;;;;;;;15.57;12.30;;;-0.70;99.90;-1.80;99675;;;;572329;247;24103;-78
2022/12/10 03:14:12;;;;;;;14.63;12.10;;;-0.70;99.90;-1.80;99679;;;;571687;247;24077;-73
2022/12/10 03:16:43;;;;;;;14.13;11.77;;;-0.70;99.90;-1.70;99675;;;;571853;247;24080;-73
2022/12/10 03:19:11;;;;;;;15.23;12.50;;;-0.70;99.90;-1.70;99687;;;;571715;247;24189;-73
2022/12/10 03:21:39;;;;;;;17.33;13.40;;;-0.70;99.90;-1.70;99690;;;;571961;247;24128;-74
2022/12/10 03:24:07;;;;;;;16.20;13.40;;;-0.70;99.90;-1.70;99686;;;;571722;247;24072;-72
2022/12/10 03:26:35;;;;;;;17.33;13.20;;;-0.70;99.90;-1.70;99682;;;;571989;247;24079;-73
2022/12/10 03:29:06;;;;;;;18.20;14.27;;;-0.70;99.90;-1.70;99690;;;;580459;247;25097;-72
2022/12/10 03:31:37;;;;;;;16.57;13.07;;;-0.60;99.90;-1.70;99689;;;;571909;247;24100;-72
2022/12/10 03:34:02;;;;;;;19.73;14.23;;;-0.70;99.90;-1.70;99675;;;;570147;247;24058;-72
2022/12/10 03:36:29;;;;;;;21.93;15.17;;;-0.70;99.90;-1.70;99682;;;;571681;247;24054;-71
2022/12/10 03:39:02;;;;;;;19.80;13.17;;;-0.70;99.90;-1.70;99682;;;;576046;247;24073;-71
2022/12/10 03:41:26;;;;;;;19.77;13.33;;;-0.70;99.90;-1.70;99674;;;;571261;247;24068;-74
2022/12/10 03:43:54;;;;;;;18.40;13.70;;;-0.70;99.90;-1.70;99682;;;;572014;247;24141;-73
2022/12/10 03:46:25;;;;;;;18.30;14.20;;;-0.70;99.90;-1.70;99683;;;;573121;246;24060;-76
2022/12/10 03:48:50;;;;;;;17.87;13.27;;;-0.70;99.90;-1.80;99671;;;;573982;245;24048;-78
2022/12/10 03:51:18;;;;;;;18.73;13.80;;;-0.70;99.90;-1.80;99665;;;;582230;247;24062;-80
2022/12/10 03:53:46;;;;;;;18.70;13.73;;;-0.80;99.90;-1.80;99670;;;;573202;247;24050;-79
2022/12/10 03:56:14;;;;;;;19.57;14.07;;;-0.80;99.90;-1.80;99665;;;;573070;247;24065;-80
2022/12/10 03:58:45;;;;;;;17.77;13.60;;;-0.70;99.90;-1.80;99661;;;;572991;247;24072;-76
2022/12/10 04:01:09;;;;;;;17.67;12.20;;;-0.80;99.90;-1.80;99665;;;;573039;247;24079;-82
2022/12/10 04:03:37;;;;;;;16.80;13.98;;;-0.80;99.90;-1.80;99664;;;;567448;247;35172;-71
2022/12/10 04:06:05;;;;;;;15.57;12.57;;;-0.80;99.90;-1.80;99660;;;;580928;247;24078;-72
2022/12/10 04:08:33;;;;;;;16.47;12.50;;;-0.80;99.90;-1.80;99666;;;;572134;247;24105;-73
2022/12/10 04:11:05;;;;;;;16.23;12.43;;;-0.70;99.90;-1.70;99672;;;;581234;247;24042;-73
2022/12/10 04:16:27;;;;;;;14.27;11.40;;;-0.70;99.90;-1.70;99667;;;;571746;247;24069;-72
2022/12/10 04:19:01;;;;;;;18.87;13.33;;;-0.70;99.90;-1.70;99672;;;;580737;247;24058;-72
2022/12/10 04:27:01;;;;;;;16.37;12.50;;;-0.60;99.90;-1.70;99666;;;;571601;247;24058;-74
2022/12/10 04:29:29;;;;;;;18.43;14.77;;;-0.70;99.90;-1.70;99660;;;;571355;247;24079;-72
2022/12/10 04:31:57;;;;;;;18.00;13.77;;;-0.60;99.90;-1.70;99667;;;;571687;247;24096;-74
2022/12/10 04:34:27;;;;;;;18.83;13.57;;;-0.60;99.90;-1.60;99663;;;;571433;247;24051;-74
2022/12/10 04:36:52;;;;;;;16.03;13.23;;;-0.60;99.90;-1.60;99656;;;;580401;247;24089;-72
2022/12/10 04:39:20;;;;;;;16.53;12.70;;;-0.60;99.90;-1.70;99659;;;;571911;247;24129;-73
2022/12/10 04:41:48;;;;;;;15.70;11.77;;;-0.60;99.90;-1.70;99665;;;;571949;247;24156;-73
2022/12/10 04:44:16;;;;;;;15.30;13.07;;;-0.60;99.90;-1.70;99664;;;;571897;247;24058;-75
2022/12/10 04:46:44;;;;;;;16.13;13.63;;;-0.60;99.90;-1.70;99665;;;;571867;247;24133;-77
2022/12/10 04:49:12;;;;;;;20.67;13.93;;;-0.60;99.90;-1.70;99662;;;;577059;247;24060;-77
2022/12/10 04:51:40;;;;;;;17.57;12.97;;;-0.70;99.90;-1.70;99663;;;;571981;247;24074;-73
2022/12/10 04:54:08;;;;;;;19.27;12.77;;;-0.70;99.90;-1.70;99668;;;;581123;247;24057;-77
2022/12/10 04:56:39;;;;;;;17.90;13.17;;;-0.70;99.90;-1.70;99655;;;;571941;245;24098;-76
2022/12/10 04:59:04;;;;;;;17.37;13.63;;;-0.70;99.90;-1.70;99651;;;;573386;246;24074;-76
2022/12/10 05:01:32;;;;;;;17.77;13.97;;;-0.70;99.90;-1.80;99659;;;;572861;247;24080;-82
2022/12/10 05:04:03;;;;;;;18.57;13.80;;;-0.70;99.90;-1.80;99665;;;;581486;247;24109;-73
2022/12/10 05:06:30;;;;;;;18.43;13.53;;;-0.70;99.90;-1.70;99665;;;;572858;247;24101;-74
2022/12/10 05:08:58;;;;;;;17.80;13.83;;;-0.70;99.90;-1.70;99667;;;;581400;245;24126;-74
2022/12/10 05:11:27;;;;;;;16.93;12.30;;;-0.70;99.90;-1.70;99653;;;;572614;247;24097;-76
2022/12/10 05:13:56;;;;;;;18.73;14.43;;;-0.70;99.90;-1.70;99655;;;;572725;247;24081;-76
2022/12/10 05:16:24;;;;;;;19.80;15.00;;;-0.70;99.90;-1.70;99664;;;;576608;247;24067;-79
2022/12/10 05:18:52;;;;;;;20.13;14.83;;;-0.70;99.90;-1.70;99668;;;;572385;247;24081;-73
2022/12/10 05:21:24;;;;;;;17.53;15.00;;;-0.70;99.90;-1.70;99668;;;;572143;247;24124;-73
2022/12/10 05:23:52;;;;;;;19.70;14.73;;;-0.70;99.90;-1.70;99666;;;;572174;247;24186;-71
2022/12/10 05:26:23;;;;;;;18.43;13.80;;;-0.70;99.90;-1.70;99666;;;;570835;247;24066;-72
2022/12/10 05:28:53;;;;;;;16.97;13.40;;;-0.70;99.90;-1.70;99664;;;;572584;247;24088;-75
2022/12/10 05:31:27;;;;;;;18.27;14.43;;;-0.70;99.90;-1.80;99677;;;;576271;247;24102;-76
2022/12/10 05:33:56;;;;;;;17.27;13.83;;;-0.70;99.90;-1.70;99680;;;;571997;247;24084;-75
2022/12/10 05:36:24;;;;;;;18.93;13.93;;;-0.80;99.90;-1.80;99666;;;;580629;247;24058;-74
2022/12/10 05:38:51;;;;;;;17.67;13.43;;;-0.70;99.90;-1.80;99661;;;;571974;247;24100;-74
2022/12/10 05:41:22;;;;;;;20.47;15.10;;;-0.80;99.90;-1.80;99665;;;;580820;247;24064;-73
2022/12/10 05:43:50;;;;;;;18.07;13.53;;;-0.80;99.90;-1.80;99666;;;;572038;247;24137;-82
2022/12/10 05:46:18;;;;;;;17.97;13.97;;;-0.80;99.90;-1.80;99664;;;;581050;247;24113;-78
2022/12/10 05:48:46;;;;;;;17.33;12.80;;;-0.80;99.90;-1.80;99667;;;;571822;247;24136;-72
2022/12/10 05:51:14;;;;;;;18.27;14.10;;;-0.80;99.90;-1.90;99666;;;;580624;246;24081;-73
2022/12/10 05:53:42;;;;;;;17.73;13.93;;;-0.80;99.90;-1.90;99660;;;;572206;247;24112;-78
2022/12/10 05:56:09;;;;;;;24.23;18.27;;;-0.90;99.90;-1.90;99666;;;;572194;247;24070;-79
2022/12/10 05:58:38;;;;;;;22.80;16.73;;;-0.90;99.90;-1.90;99663;;;;553703;255;24088;-79
2022/12/10 06:01:10;;;;;;;21.70;15.10;;;-1.00;99.90;-2.00;99661;;;;572037;247;24058;-72
2022/12/10 06:03:38;;;;;;;20.30;14.27;;;-1.00;99.90;-2.00;99672;;;;572375;247;24084;-73
2022/12/10 06:06:06;;;;;;;24.37;16.30;;;-1.00;99.90;-2.00;99667;;;;572581;247;24117;-79
2022/12/10 06:08:34;;;;;;;18.27;14.33;;;-1.00;99.90;-2.00;99669;;;;581549;246;24097;-78
2022/12/10 06:11:05;;;;;;;18.87;14.70;;;-1.00;99.90;-2.00;99669;;;;582537;246;24140;-81
2022/12/10 06:13:32;;;;;;;21.50;16.17;;;-1.00;99.90;-2.00;99669;;;;573386;247;24065;-73
2022/12/10 06:16:00;;;;;;;29.87;18.07;;;-1.10;99.90;-2.10;99670;;;;581702;247;24084;-81
2022/12/10 06:18:28;;;;;;;23.30;17.03;;;-1.00;99.90;-2.10;99677;;;;578118;247;24131;-80
2022/12/10 06:20:56;;;;;;;22.07;16.33;;;-1.10;99.90;-2.00;99686;;;;572971;247;25079;-79
2022/12/10 06:23:24;;;;;;;29.43;19.50;;;-1.00;99.90;-2.00;99684;;;;572935;247;24046;-81
2022/12/10 06:25:52;;;;;;;25.93;18.07;;;-1.00;99.90;-2.00;99687;;;;572864;247;24090;-80
2022/12/10 06:28:20;;;;;;;25.63;19.37;;;-1.00;99.90;-2.00;99691;;;;572708;247;24083;-80
2022/12/10 06:30:49;;;;;;;20.90;15.43;;;-1.00;99.90;-2.00;99694;;;;572787;247;24066;-76
2022/12/10 06:33:17;;;;;;;26.23;17.90;;;-1.00;99.90;-2.00;99688;;;;572654;247;24115;-78
2022/12/10 06:35:46;;;;;;;24.07;16.80;;;-0.90;99.90;-2.00;99692;;;;572630;247;24068;-83
2022/12/10 06:38:15;;;;;;;24.43;17.63;;;-0.90;99.90;-2.00;99700;;;;572670;247;24060;-80
2022/12/10 06:40:43;;;;;;;22.07;17.57;;;-0.90;99.90;-1.90;99696;;;;572551;247;24131;-77
2022/12/10 06:43:10;;;;;;;24.30;17.27;;;-0.90;99.90;-2.00;99698;;;;572484;247;24080;-80
2022/12/10 06:45:41;;;;;;;23.07;17.10;;;-0.90;99.90;-1.90;99705;;;;572297;247;24087;-76
2022/12/10 06:48:09;;;;;;;22.63;17.20;;;-0.90;99.90;-1.90;99702;;;;572127;247;24102;-72
2022/12/10 06:50:37;;;;;;;24.03;17.60;;;-0.90;99.90;-1.90;99705;;;;576439;247;24088;-73
2022/12/10 06:53:05;;;;;;;20.00;16.60;;;-0.90;99.90;-1.90;99711;;;;572342;247;24053;-74
2022/12/10 06:55:33;;;;;;;21.43;15.90;;;-0.80;99.90;-1.90;99715;;;;572305;247;24113;-74
2022/12/10 06:58:02;;;;;;;21.57;16.33;;;-0.80;99.90;-1.90;99704;;;;572066;247;24057;-73
2022/12/10 07:00:30;;;;;;;20.77;16.23;;;-0.80;99.90;-1.80;99705;;;;572004;247;24041;-70
2022/12/10 07:02:58;;;;;;;19.63;15.53;;;-0.80;99.90;-1.90;99707;;;;571950;247;24063;-71
2022/12/10 07:05:29;;;;;;;21.13;16.10;;;-0.80;99.90;-1.80;99724;;;;572106;247;24055;-72
2022/12/10 07:07:54;;;;;;;21.57;15.10;;;-0.80;99.90;-1.90;99713;;;;571644;247;24071;-71
2022/12/10 07:10:22;;;;;;;22.10;15.60;;;-0.80;99.90;-1.90;99717;;;;572082;247;24040;-72
2022/12/10 07:12:50;;;;;;;22.60;16.50;;;-0.80;99.90;-1.80;99710;;;;580477;243;24067;-71
2022/12/10 07:15:18;;;;;;;22.10;16.43;;;-0.80;99.90;-1.80;99720;;;;572092;247;24061;-71
2022/12/10 07:17:47;;;;;;;22.77;16.47;;;-0.80;99.90;-1.80;99721;;;;571689;247;24038;-72
2022/12/10 07:20:15;;;;;;;23.43;17.10;;;-0.70;99.90;-1.80;99720;;;;572433;246;24052;-75
2022/12/10 07:22:43;;;;;;;22.47;16.00;;;-0.70;99.90;-1.70;99726;;;;573150;246;24172;-74
2022/12/10 07:25:11;;;;;;;22.53;15.17;;;-0.70;99.90;-1.70;99725;;;;572556;247;24051;-72
2022/12/10 07:27:39;;;;;;;20.90;15.50;;;-0.70;99.90;-1.80;99723;;;;572403;247;24180;-72
2022/12/10 07:30:07;;;;;;;23.03;16.47;;;-0.70;99.90;-1.80;99720;;;;572243;247;24049;-71
2022/12/10 07:32:35;;;;;;;23.57;17.57;;;-0.80;99.90;-1.80;99726;;;;572238;247;24063;-72
2022/12/10 07:35:04;;;;;;;21.20;16.87;;;-0.70;99.90;-1.70;99728;;;;572217;247;24062;-72
2022/12/10 07:37:31;;;;;;;24.07;16.80;;;-0.70;99.90;-1.70;99728;;;;572325;247;24061;-72
2022/12/10 07:39:59;;;;;;;23.73;18.30;;;-0.70;99.90;-1.70;99726;;;;566935;247;35258;-71
2022/12/10 07:42:27;;;;;;;19.60;15.10;;;-0.70;99.90;-1.70;99722;;;;571927;247;25099;-72
2022/12/10 07:44:55;;;;;;;21.83;15.90;;;-0.60;99.90;-1.70;99715;;;;571986;247;24073;-72
2022/12/10 07:47:23;;;;;;;20.67;15.30;;;-0.70;99.90;-1.60;99709;;;;571990;247;24064;-72
2022/12/10 07:49:51;;;;;;;19.80;14.63;;;-0.60;99.90;-1.60;99708;;;;572027;247;24121;-73
2022/12/10 07:52:19;;;;;;;20.77;14.50;;;-0.50;99.90;-1.60;99712;;;;571970;247;25096;-72
2022/12/10 07:54:47;;;;;;;20.07;15.47;;;-0.50;99.90;-1.50;99715;;;;571874;247;24131;-72
2022/12/10 07:57:15;;;;;;;20.70;15.23;;;-0.50;99.90;-1.50;99713;;;;571783;247;24102;-72
2022/12/10 07:59:43;;;;;;;21.27;14.57;;;-0.50;99.90;-1.50;99717;;;;571572;247;24050;-72
2022/12/10 08:02:11;;;;;;;22.52;17.40;;;-0.40;99.90;-1.40;99715;;;;566830;247;35176;-75
2022/12/10 08:04:39;;;;;;;20.57;15.27;;;-0.40;99.90;-1.40;99726;;;;571710;247;24120;-72
2022/12/10 08:07:07;;;;;;;19.27;15.10;;;-0.40;99.90;-1.40;99730;;;;571861;247;24073;-73
2022/12/10 08:09:35;;;;;;;21.57;15.50;;;-0.30;99.90;-1.30;99738;;;;571788;247;24217;-82
2022/12/10 08:12:03;;;;;;;20.17;15.97;;;-0.30;99.90;-1.30;99736;;;;571728;247;24061;-73
2022/12/10 08:14:31;;;;;;;20.80;16.07;;;-0.30;99.90;-1.30;99731;;;;571690;247;24063;-82
2022/12/10 08:16:59;;;;;;;20.73;15.27;;;-0.30;99.90;-1.20;99740;;;;572295;247;24062;-81
2022/12/10 08:19:27;;;;;;;22.07;15.63;;;-0.20;99.90;-1.20;99734;;;;572329;247;24063;-73
2022/12/10 08:21:56;;;;;;;20.60;15.50;;;-0.20;99.90;-1.20;99745;;;;572338;247;24112;-76
2022/12/10 08:24:24;;;;;;;19.23;14.43;;;-0.20;99.90;-1.20;99744;;;;572355;247;24040;-72
2022/12/10 08:26:52;;;;;;;20.77;15.27;;;-0.20;99.90;-1.20;99736;;;;572392;247;24050;-78
2022/12/10 08:29:20;;;;;;;25.17;17.00;;;-0.10;99.90;-1.10;99734;;;;572431;247;24055;-77
2022/12/10 08:31:48;;;;;;;25.27;17.57;;;-0.10;99.90;-1.10;99750;;;;572577;246;24063;-72
2022/12/10 08:34:16;;;;;;;26.63;16.67;;;0.00;99.90;-1.00;99752;;;;573682;246;24204;-76
2022/12/10 08:36:44;;;;;;;25.47;16.53;;;0.00;99.90;-1.00;99755;;;;573175;247;24065;-75
2022/12/10 08:39:16;;;;;;;28.13;16.80;;;0.00;99.90;-1.10;99753;;;;573020;247;24051;-72
2022/12/10 08:41:40;;;;;;;26.33;17.03;;;0.00;99.90;-1.10;99753;;;;572553;247;24069;-72
2022/12/10 08:44:08;;;;;;;27.30;17.97;;;-0.10;99.90;-1.10;99759;;;;572580;247;25103;-73
2022/12/10 08:46:35;;;;;;;28.97;19.23;;;-0.10;99.90;-1.10;99752;;;;572847;247;24082;-75
2022/12/10 08:49:07;;;;;;;29.37;19.37;;;-0.10;99.90;-1.10;99758;;;;572771;247;24055;-78
2022/12/10 08:51:33;;;;;;;28.00;20.53;;;-0.10;99.90;-1.10;99759;;;;572313;247;24055;-73
2022/12/10 08:54:02;;;;;;;28.33;19.60;;;-0.10;99.90;-1.10;99751;;;;581212;247;24058;-74
2022/12/10 08:56:29;;;;;;;25.77;18.33;;;-0.10;99.90;-1.00;99750;;;;572486;247;24059;-73
2022/12/10 08:58:57;;;;;;;28.87;20.07;;;-0.10;99.90;-1.00;99755;;;;572515;247;24074;-72
2022/12/10 09:01:25;;;;;;;34.45;23.30;;;0.00;99.90;-1.00;99764;;;;567473;247;35087;-73
2022/12/10 09:03:53;;;;;;;32.23;19.97;;;0.00;99.90;-1.00;99763;;;;572310;247;24046;-74
2022/12/10 09:06:21;;;;;;;27.37;20.60;;;0.00;99.90;-1.00;99755;;;;572638;247;24049;-73
2022/12/10 09:08:49;;;;;;;28.87;20.50;;;0.00;99.90;-0.90;99763;;;;571914;247;24192;-73
2022/12/10 09:11:23;;;;;;;29.58;21.12;;;0.10;99.90;-0.90;99764;;;;566999;247;35167;-72
2022/12/10 09:13:52;;;;;;;26.57;19.67;;;0.10;99.90;-0.90;99759;;;;580118;243;24070;-79
2022/12/10 09:16:19;;;;;;;30.23;20.77;;;0.10;99.90;-0.80;99752;;;;572658;247;24087;-78
2022/12/10 09:18:47;;;;;;;27.77;20.03;;;0.20;99.90;-0.80;99762;;;;572649;247;24049;-78
2022/12/10 09:21:15;;;;;;;30.80;21.70;;;0.20;99.90;-0.80;99758;;;;572295;247;24069;-75
2022/12/10 09:23:46;;;;;;;33.63;23.30;;;0.30;99.90;-0.70;99753;;;;581169;247;24055;-80
2022/12/10 09:26:11;;;;;;;32.87;22.80;;;0.30;99.90;-0.60;99750;;;;572132;247;24070;-82
2022/12/10 09:28:39;;;;;;;33.33;23.73;;;0.40;99.90;-0.50;99754;;;;581082;247;24055;-80
2022/12/10 09:31:08;;;;;;;29.40;21.20;;;0.50;99.90;-0.40;99761;;;;571928;247;24087;-82
2022/12/10 09:33:36;;;;;;;31.30;21.87;;;0.60;99.90;-0.30;99750;;;;571952;247;24149;-75
2022/12/10 09:36:07;;;;;;;35.17;23.83;;;0.70;99.90;-0.10;99751;;;;566869;247;35160;-71
2022/12/10 09:38:32;;;;;;;28.93;13.23;;;0.90;99.90;0.00;99748;;;;571449;247;24078;-71
2022/12/10 09:41:03;;;;;;;28.37;19.90;;;1.00;99.90;0.10;99755;;;;576949;247;24109;-74
2022/12/10 09:43:52;;;;;;;29.20;20.57;;;1.10;99.90;0.30;99744;;;;572351;246;24057;-73
2022/12/10 09:46:40;;;;;;;31.50;22.10;;;1.30;99.90;0.50;99737;;;;573294;246;24068;-73
2022/12/10 09:49:45;;;;;;;30.50;20.77;;;1.50;99.90;0.60;99736;;;;571425;247;24095;-71
2022/12/10 09:52:13;;;;;;;27.47;19.97;;;1.70;99.90;0.60;99734;;;;571644;247;24091;-71
2022/12/10 09:54:55;;;;;;;27.20;19.47;;;1.60;99.90;0.50;99734;;;;580983;247;24058;-71
2022/12/10 09:57:26;;;;;;;31.13;21.67;;;1.60;99.90;0.30;99729;;;;572846;247;24059;-72
2022/12/10 09:59:54;;;;;;;34.37;23.50;;;1.40;99.90;0.20;99735;;;;570159;247;24057;-72
2022/12/10 10:02:25;;;;;;;36.07;23.50;;;1.30;99.90;0.10;99737;;;;571983;247;25112;-71
2022/12/10 10:04:53;;;;;;;29.87;21.67;;;1.20;99.90;0.00;99739;;;;572311;247;24096;-73
2022/12/10 10:07:24;;;;;;;29.90;20.87;;;1.10;99.90;-0.10;99731;;;;571659;247;25128;-72
2022/12/10 10:09:55;;;;;;;32.73;21.43;;;0.90;99.90;-0.30;99721;;;;580904;247;24076;-71
2022/12/10 10:12:23;;;;;;;28.73;20.77;;;0.80;99.90;-0.40;99727;;;;570999;247;24081;-71
2022/12/10 10:14:51;;;;;;;34.78;24.35;;;0.60;99.90;-0.50;99727;;;;567611;247;35135;-71
2022/12/10 10:17:22;;;;;;;28.97;19.53;;;0.40;99.90;-0.70;99730;;;;572751;247;24055;-72
2022/12/10 10:19:50;;;;;;;31.60;23.00;;;0.40;99.90;-0.80;99739;;;;572653;247;24156;-71
2022/12/10 10:22:18;;;;;;;32.50;22.37;;;0.20;99.90;-0.90;99728;;;;572618;247;24076;-79
2022/12/10 10:24:45;;;;;;;31.20;21.97;;;0.10;99.90;-1.00;99737;;;;572545;247;24097;-76
2022/12/10 10:27:22;;;;;;;31.97;22.27;;;0.00;99.90;-1.10;99736;;;;572795;247;24084;-73
2022/12/10 10:29:53;;;;;;;48.00;31.53;;;-0.10;99.90;-1.20;99734;;;;572738;247;24104;-74
2022/12/10 10:32:24;;;;;;;41.07;25.93;;;-0.20;99.90;-1.20;99731;;;;572741;247;24066;-73
2022/12/10 10:34:54;;;;;;;44.07;27.90;;;-0.30;99.90;-1.30;99728;;;;572684;247;24145;-76
2022/12/10 10:37:35;;;;;;;43.03;27.83;;;-0.40;99.90;-1.40;99731;;;;572738;247;24054;-74
2022/12/10 10:40:02;;;;;;;34.60;24.00;;;-0.40;99.90;-1.50;99726;;;;572932;247;24054;-72
2022/12/10 10:42:42;;;;;;;34.90;24.87;;;-0.50;99.90;-1.50;99731;;;;572897;247;24089;-76
2022/12/10 10:45:32;;;;;;;33.10;23.53;;;-0.50;99.90;-1.50;99731;;;;578162;247;24116;-77
2022/12/10 10:48:15;;;;;;;35.20;24.23;;;-0.50;99.90;-1.60;99730;;;;572942;247;24099;-82
2022/12/10 10:50:42;;;;;;;29.60;21.53;;;-0.60;99.90;-1.60;99723;;;;572271;247;24101;-72
2022/12/10 10:53:30;;;;;;;30.63;22.20;;;-0.60;99.90;-1.60;99717;;;;578342;247;24123;-82
2022/12/10 10:56:25;;;;;;;34.53;25.75;;;-0.60;99.90;-1.60;99723;;;;568587;246;35222;-75
2022/12/10 10:59:02;;;;;;;36.10;23.50;;;-0.60;99.90;-1.70;99716;;;;579723;246;24084;-75
2022/12/10 11:01:48;;;;;;;29.97;22.20;;;-0.70;99.90;-1.60;99716;;;;573532;247;24122;-71
2022/12/10 11:04:16;;;;;;;48.23;29.77;;;-0.70;99.90;-1.70;99715;;;;578511;247;24118;-72
2022/12/10 11:06:44;;;;;;;49.03;29.10;;;-0.70;99.90;-1.70;99722;;;;573507;247;24060;-74
2022/12/10 11:09:21;;;;;;;43.70;25.57;;;-0.70;99.90;-1.70;99716;;;;573211;247;24089;-71
2022/12/10 11:11:52;;;;;;;69.03;32.33;;;-0.70;99.90;-1.70;99723;;;;572529;247;24093;-77
2022/12/10 11:14:31;;;;;;;45.07;27.00;;;-0.70;99.90;-1.70;99720;;;;572144;247;24064;-73
2022/12/10 11:17:12;;;;;;;47.17;28.53;;;-0.70;99.90;-1.60;99721;;;;572664;247;24077;-74
2022/12/10 11:19:42;;;;;;;37.23;22.27;;;-0.70;99.90;-1.60;99712;;;;571938;247;24053;-74
2022/12/10 11:22:22;;;;;;;52.57;28.27;;;-0.60;99.90;-1.50;99718;;;;581320;247;25166;-74
2022/12/10 11:24:50;;;;;;;32.00;22.57;;;-0.50;99.90;-1.30;99721;;;;572355;247;24137;-74